This is the latest recevied weather packets stored in our database for station/object W4OTS. If no packets are shown the sender has not sent any weather packets the latest 1 day(s).
| Time | Temp. | Humidity | Pressure | Rain* | Wind** | Luminosity | Snow |
|---|---|---|---|---|---|---|---|
| 1778000645 | 23.89° C | 50% | 1018.1 hPa | 0 mm | 0.89 m/s, 253° | 488 W/m² | - |
| 1778000340 | 23.89° C | 47% | 1018.1 hPa | 0 mm | 0.45 m/s, 253° | 616 W/m² | - |
| 1778000030 | 23.89° C | 48% | 1017.8 hPa | 0 mm | 0.89 m/s, 220° | 691 W/m² | - |
| 1777999726 | 24.44° C | 47% | 1018.3 hPa | 0 mm | 1.79 m/s, 204° | 724 W/m² | - |
| 1777999423 | 23.89° C | 49% | 1018.3 hPa | 0 mm | 0.45 m/s, 225° | 697 W/m² | - |
| 1777999121 | 23.33° C | 53% | 1018.3 hPa | 0 mm | 0.45 m/s, 249° | 661 W/m² | - |
| 1777998820 | 23.33° C | 51% | 1018.4 hPa | 0 mm | 1.79 m/s, 179° | 639 W/m² | - |
| 1777998518 | 22.78° C | 53% | 1018.4 hPa | 0 mm | 0.89 m/s, 160° | 647 W/m² | - |
| 1777998213 | 22.78° C | 53% | 1018.5 hPa | 0 mm | 0.45 m/s, 240° | 695 W/m² | - |
| 1777997911 | 22.78° C | 55% | 1018.4 hPa | 0 mm | 1.34 m/s, 207° | 643 W/m² | - |
| 1777997602 | 22.78° C | 56% | 1018.4 hPa | 0 mm | 1.34 m/s, 220° | 556 W/m² | - |
| 1777997300 | 22.78° C | 55% | 1018.6 hPa | 0 mm | 0.89 m/s, 241° | 510 W/m² | - |
| 1777996997 | 22.78° C | 56% | 1018.6 hPa | 0 mm | 0.89 m/s, 215° | 540 W/m² | - |
| 1777996694 | 22.78° C | 55% | 1018.7 hPa | 0 mm | 1.34 m/s, 206° | 567 W/m² | - |
| 1777996389 | 22.78° C | 55% | 1018.6 hPa | 0 mm | 0.45 m/s, 233° | 540 W/m² | - |
| 1777996086 | 22.78° C | 56% | 1018.4 hPa | 0 mm | 0.89 m/s, 183° | 538 W/m² | - |
| 1777995782 | 22.78° C | 55% | 1018.8 hPa | 0 mm | 1.34 m/s, 247° | 622 W/m² | - |
| 1777995479 | 22.22° C | 56% | 1019 hPa | 0 mm | 0.45 m/s, 250° | 662 W/m² | - |
| 1777995176 | 21.67° C | 58% | 1018.9 hPa | 0 mm | 0.89 m/s, 226° | 693 W/m² | - |
| 1777994874 | 21.67° C | 58% | 1019 hPa | 0 mm | 0.45 m/s, 240° | 673 W/m² | - |
| 1777994570 | 22.22° C | 57% | 1018.7 hPa | 0 mm | 1.34 m/s, 198° | 696 W/m² | - |
| 1777994269 | 21.67° C | 58% | 1018.8 hPa | 0 mm | 0.45 m/s, 245° | 740 W/m² | - |
| 1777993968 | 21.67° C | 59% | 1018.6 hPa | 0 mm | 0.89 m/s, 206° | 738 W/m² | - |
| 1777993665 | 21.67° C | 59% | 1018.8 hPa | 0 mm | 0.89 m/s, 208° | 783 W/m² | - |
| 1777993362 | 21.67° C | 57% | 1018.7 hPa | 0 mm | 0.89 m/s, 255° | 747 W/m² | - |
* Rain latest hour (hover to see other rain measurements)
** Current wind speed in m/s (hover to see current wind gust speed)